sensor_id;sensor_type;location;lat;lon;timestamp;temperature;humidity
21121;DHT22;12519;43.318;21.898;2024-03-23T00:54:43;10.4;75.0
21121;DHT22;12519;43.318;21.898;2024-03-23T00:59:20;10.1;75.0
21121;DHT22;12519;43.318;21.898;2024-03-23T01:03:57;10.1;75.0
21121;DHT22;12519;43.318;21.898;2024-03-23T01:08:35;10.0;76.0
21121;DHT22;12519;43.318;21.898;2024-03-23T01:13:11;10.0;76.0
21121;DHT22;12519;43.318;21.898;2024-03-23T01:17:48;10.0;76.0
21121;DHT22;12519;43.318;21.898;2024-03-23T01:22:25;10.0;76.0
21121;DHT22;12519;43.318;21.898;2024-03-23T01:27:02;10.0;76.0
21121;DHT22;12519;43.318;21.898;2024-03-23T01:31:40;10.4;75.0
21121;DHT22;12519;43.318;21.898;2024-03-23T01:36:17;10.4;75.0
21121;DHT22;12519;43.318;21.898;2024-03-23T01:40:56;10.7;74.0
21121;DHT22;12519;43.318;21.898;2024-03-23T01:45:34;10.7;74.0
21121;DHT22;12519;43.318;21.898;2024-03-23T01:50:13;10.7;74.0
21121;DHT22;12519;43.318;21.898;2024-03-23T01:54:52;10.7;74.0
21121;DHT22;12519;43.318;21.898;2024-03-23T01:59:29;10.7;74.0
21121;DHT22;12519;43.318;21.898;2024-03-23T02:04:07;10.7;74.0
21121;DHT22;12519;43.318;21.898;2024-03-23T02:08:44;10.4;75.0
21121;DHT22;12519;43.318;21.898;2024-03-23T02:13:21;10.4;75.0
21121;DHT22;12519;43.318;21.898;2024-03-23T02:17:58;10.2;76.0
21121;DHT22;12519;43.318;21.898;2024-03-23T02:22:36;10.2;76.0
21121;DHT22;12519;43.318;21.898;2024-03-23T02:27:15;9.8;76.0
21121;DHT22;12519;43.318;21.898;2024-03-23T02:31:51;9.8;76.0
21121;DHT22;12519;43.318;21.898;2024-03-23T02:36:28;9.8;76.0
21121;DHT22;12519;43.318;21.898;2024-03-23T02:41:04;9.5;77.0
21121;DHT22;12519;43.318;21.898;2024-03-23T02:45:41;9.5;77.0
21121;DHT22;12519;43.318;21.898;2024-03-23T02:50:18;9.6;76.0
21121;DHT22;12519;43.318;21.898;2024-03-23T02:54:54;9.6;76.0
21121;DHT22;12519;43.318;21.898;2024-03-23T02:59:31;9.7;76.0
21121;DHT22;12519;43.318;21.898;2024-03-23T03:04:07;9.7;76.0
21121;DHT22;12519;43.318;21.898;2024-03-23T03:08:44;9.8;76.0
21121;DHT22;12519;43.318;21.898;2024-03-23T03:13:20;9.8;76.0
21121;DHT22;12519;43.318;21.898;2024-03-23T03:17:57;9.8;76.0
21121;DHT22;12519;43.318;21.898;2024-03-23T03:22:34;9.8;76.0
21121;DHT22;12519;43.318;21.898;2024-03-23T03:27:11;9.8;76.0
21121;DHT22;12519;43.318;21.898;2024-03-23T03:31:48;9.6;76.0
21121;DHT22;12519;43.318;21.898;2024-03-23T03:36:25;9.6;76.0
21121;DHT22;12519;43.318;21.898;2024-03-23T03:41:03;9.3;76.0
21121;DHT22;12519;43.318;21.898;2024-03-23T03:45:40;9.3;76.0
21121;DHT22;12519;43.318;21.898;2024-03-23T03:50:17;9.2;77.0
21121;DHT22;12519;43.318;21.898;2024-03-23T03:54:58;9.2;77.0
21121;DHT22;12519;43.318;21.898;2024-03-23T03:59:49;9.0;77.0
21121;DHT22;12519;43.318;21.898;2024-03-23T04:04:25;9.0;77.0
21121;DHT22;12519;43.318;21.898;2024-03-23T04:09:02;9.0;77.0
21121;DHT22;12519;43.318;21.898;2024-03-23T04:13:39;9.0;77.0
21121;DHT22;12519;43.318;21.898;2024-03-23T04:18:15;8.9;77.0
21121;DHT22;12519;43.318;21.898;2024-03-23T04:22:52;8.9;77.0
21121;DHT22;12519;43.318;21.898;2024-03-23T04:27:28;8.8;78.0
21121;DHT22;12519;43.318;21.898;2024-03-23T04:32:05;8.8;78.0
21121;DHT22;12519;43.318;21.898;2024-03-23T04:36:42;8.8;78.0
21121;DHT22;12519;43.318;21.898;2024-03-23T04:41:19;8.7;78.0
21121;DHT22;12519;43.318;21.898;2024-03-23T04:45:56;8.7;78.0
21121;DHT22;12519;43.318;21.898;2024-03-23T04:50:33;8.7;78.0
21121;DHT22;12519;43.318;21.898;2024-03-23T04:55:10;8.7;78.0
21121;DHT22;12519;43.318;21.898;2024-03-23T04:59:47;8.7;78.0
21121;DHT22;12519;43.318;21.898;2024-03-23T05:04:24;8.7;78.0
21121;DHT22;12519;43.318;21.898;2024-03-23T05:09:01;8.8;78.0
21121;DHT22;12519;43.318;21.898;2024-03-23T05:13:37;8.8;78.0
21121;DHT22;12519;43.318;21.898;2024-03-23T05:18:14;9.0;78.0
21121;DHT22;12519;43.318;21.898;2024-03-23T05:22:50;9.0;78.0
21121;DHT22;12519;43.318;21.898;2024-03-23T05:27:26;9.0;78.0
21121;DHT22;12519;43.318;21.898;2024-03-23T05:32:03;10.2;78.0
21121;DHT22;12519;43.318;21.898;2024-03-23T05:36:40;10.2;78.0
21121;DHT22;12519;43.318;21.898;2024-03-23T05:41:17;11.3;78.0
21121;DHT22;12519;43.318;21.898;2024-03-23T05:45:54;11.3;78.0
21121;DHT22;12519;43.318;21.898;2024-03-23T05:50:33;10.6;76.0
21121;DHT22;12519;43.318;21.898;2024-03-23T05:55:10;10.6;76.0
21121;DHT22;12519;43.318;21.898;2024-03-23T05:59:47;9.9;75.0
21121;DHT22;12519;43.318;21.898;2024-03-23T06:04:23;9.9;75.0
21121;DHT22;12519;43.318;21.898;2024-03-23T06:09:00;9.9;74.0
21121;DHT22;12519;43.318;21.898;2024-03-23T06:13:37;9.9;74.0
21121;DHT22;12519;43.318;21.898;2024-03-23T06:18:14;9.8;74.0
21121;DHT22;12519;43.318;21.898;2024-03-23T06:22:51;9.8;74.0
21121;DHT22;12519;43.318;21.898;2024-03-23T06:27:27;9.8;74.0
21121;DHT22;12519;43.318;21.898;2024-03-23T06:32:04;9.9;74.0
21121;DHT22;12519;43.318;21.898;2024-03-23T06:36:42;9.9;74.0
21121;DHT22;12519;43.318;21.898;2024-03-23T06:41:19;9.9;74.0
21121;DHT22;12519;43.318;21.898;2024-03-23T06:45:56;9.9;74.0
21121;DHT22;12519;43.318;21.898;2024-03-23T06:50:34;10.1;73.0
21121;DHT22;12519;43.318;21.898;2024-03-23T06:55:11;10.1;73.0
21121;DHT22;12519;43.318;21.898;2024-03-23T06:59:48;10.3;73.0
21121;DHT22;12519;43.318;21.898;2024-03-23T07:04:25;10.3;73.0
21121;DHT22;12519;43.318;21.898;2024-03-23T07:09:02;10.4;72.0
21121;DHT22;12519;43.318;21.898;2024-03-23T07:13:39;10.4;72.0
21121;DHT22;12519;43.318;21.898;2024-03-23T07:18:15;10.5;72.0
21121;DHT22;12519;43.318;21.898;2024-03-23T07:22:52;10.5;72.0
21121;DHT22;12519;43.318;21.898;2024-03-23T07:27:29;10.5;72.0
21121;DHT22;12519;43.318;21.898;2024-03-23T07:32:06;11.4;73.0
21121;DHT22;12519;43.318;21.898;2024-03-23T07:36:42;11.4;73.0
21121;DHT22;12519;43.318;21.898;2024-03-23T07:41:20;12.4;75.0
21121;DHT22;12519;43.318;21.898;2024-03-23T07:45:57;12.4;75.0
21121;DHT22;12519;43.318;21.898;2024-03-23T07:50:35;13.2;71.0
21121;DHT22;12519;43.318;21.898;2024-03-23T07:55:11;13.2;71.0
21121;DHT22;12519;43.318;21.898;2024-03-23T07:59:48;14.0;67.0
21121;DHT22;12519;43.318;21.898;2024-03-23T08:04:24;14.0;67.0
21121;DHT22;12519;43.318;21.898;2024-03-23T08:09:03;14.4;66.0
21121;DHT22;12519;43.318;21.898;2024-03-23T08:13:41;14.4;66.0
21121;DHT22;12519;43.318;21.898;2024-03-23T08:18:21;14.8;65.0
21121;DHT22;12519;43.318;21.898;2024-03-23T08:22:58;14.8;65.0
21121;DHT22;12519;43.318;21.898;2024-03-23T08:27:35;14.8;65.0
21121;DHT22;12519;43.318;21.898;2024-03-23T08:32:11;15.2;64.0
21121;DHT22;12519;43.318;21.898;2024-03-23T08:36:49;15.2;64.0
21121;DHT22;12519;43.318;21.898;2024-03-23T08:41:26;15.7;63.0
21121;DHT22;12519;43.318;21.898;2024-03-23T08:46:04;15.7;63.0
21121;DHT22;12519;43.318;21.898;2024-03-23T08:50:45;16.2;63.0
21121;DHT22;12519;43.318;21.898;2024-03-23T08:55:23;16.2;63.0
21121;DHT22;12519;43.318;21.898;2024-03-23T08:59:59;16.6;63.0
21121;DHT22;12519;43.318;21.898;2024-03-23T09:04:36;16.6;63.0
21121;DHT22;12519;43.318;21.898;2024-03-23T09:09:13;17.4;63.0
21121;DHT22;12519;43.318;21.898;2024-03-23T09:13:49;17.4;63.0
21121;DHT22;12519;43.318;21.898;2024-03-23T09:18:26;18.1;62.0
21121;DHT22;12519;43.318;21.898;2024-03-23T09:23:03;18.1;62.0
21121;DHT22;12519;43.318;21.898;2024-03-23T09:27:40;18.1;62.0
21121;DHT22;12519;43.318;21.898;2024-03-23T09:32:17;18.0;62.0
21121;DHT22;12519;43.318;21.898;2024-03-23T09:36:54;18.0;62.0
21121;DHT22;12519;43.318;21.898;2024-03-23T09:41:31;17.8;61.0
21121;DHT22;12519;43.318;21.898;2024-03-23T09:46:08;17.8;61.0
21121;DHT22;12519;43.318;21.898;2024-03-23T09:50:45;18.0;61.0
21121;DHT22;12519;43.318;21.898;2024-03-23T09:55:22;18.0;61.0
21121;DHT22;12519;43.318;21.898;2024-03-23T09:59:59;18.1;61.0
21121;DHT22;12519;43.318;21.898;2024-03-23T10:04:37;18.1;61.0
21121;DHT22;12519;43.318;21.898;2024-03-23T10:09:17;18.2;61.0
21121;DHT22;12519;43.318;21.898;2024-03-23T10:13:53;18.2;61.0
21121;DHT22;12519;43.318;21.898;2024-03-23T10:18:30;18.4;61.0
21121;DHT22;12519;43.318;21.898;2024-03-23T10:23:15;18.4;61.0
21121;DHT22;12519;43.318;21.898;2024-03-23T10:27:58;18.4;61.0
21121;DHT22;12519;43.318;21.898;2024-03-23T10:32:36;18.5;61.0
21121;DHT22;12519;43.318;21.898;2024-03-23T10:37:14;18.5;61.0
21121;DHT22;12519;43.318;21.898;2024-03-23T10:41:53;18.7;60.0
21121;DHT22;12519;43.318;21.898;2024-03-23T10:46:37;18.7;60.0
21121;DHT22;12519;43.318;21.898;2024-03-23T10:51:14;18.8;59.0
21121;DHT22;12519;43.318;21.898;2024-03-23T10:55:52;18.8;59.0
21121;DHT22;12519;43.318;21.898;2024-03-23T11:00:32;18.9;58.0
21121;DHT22;12519;43.318;21.898;2024-03-23T11:05:46;18.9;58.0
21121;DHT22;12519;43.318;21.898;2024-03-23T11:10:25;19.0;57.0
21121;DHT22;12519;43.318;21.898;2024-03-23T11:15:11;19.0;57.0
21121;DHT22;12519;43.318;21.898;2024-03-23T11:19:53;19.2;56.0
21121;DHT22;12519;43.318;21.898;2024-03-23T11:24:34;19.2;56.0
21121;DHT22;12519;43.318;21.898;2024-03-23T11:29:11;19.3;56.0
21121;DHT22;12519;43.318;21.898;2024-03-23T11:34:03;19.3;56.0
21121;DHT22;12519;43.318;21.898;2024-03-23T11:38:42;19.4;56.0
21121;DHT22;12519;43.318;21.898;2024-03-23T11:43:24;19.4;56.0
21121;DHT22;12519;43.318;21.898;2024-03-23T11:48:04;19.4;56.0
21121;DHT22;12519;43.318;21.898;2024-03-23T11:52:45;19.6;55.0
21121;DHT22;12519;43.318;21.898;2024-03-23T11:57:22;19.6;55.0
21121;DHT22;12519;43.318;21.898;2024-03-23T12:01:59;19.8;55.0
21121;DHT22;12519;43.318;21.898;2024-03-23T12:06:43;19.8;55.0
21121;DHT22;12519;43.318;21.898;2024-03-23T12:11:20;19.8;55.0
21121;DHT22;12519;43.318;21.898;2024-03-23T12:16:09;19.8;55.0
21121;DHT22;12519;43.318;21.898;2024-03-23T12:20:53;19.9;54.0
21121;DHT22;12519;43.318;21.898;2024-03-23T12:25:30;19.9;54.0
21121;DHT22;12519;43.318;21.898;2024-03-23T12:30:08;20.1;54.0
21121;DHT22;12519;43.318;21.898;2024-03-23T12:34:48;20.1;54.0
21121;DHT22;12519;43.318;21.898;2024-03-23T12:39:25;20.3;54.0
21121;DHT22;12519;43.318;21.898;2024-03-23T12:44:03;20.3;54.0
21121;DHT22;12519;43.318;21.898;2024-03-23T12:48:40;20.5;54.0
21121;DHT22;12519;43.318;21.898;2024-03-23T12:53:16;20.5;54.0
21121;DHT22;12519;43.318;21.898;2024-03-23T12:57:53;20.5;54.0
21121;DHT22;12519;43.318;21.898;2024-03-23T13:02:30;20.6;53.0
21121;DHT22;12519;43.318;21.898;2024-03-23T13:07:06;20.6;53.0
21121;DHT22;12519;43.318;21.898;2024-03-23T13:11:43;20.8;53.0
21121;DHT22;12519;43.318;21.898;2024-03-23T13:16:19;20.8;53.0
21121;DHT22;12519;43.318;21.898;2024-03-23T13:20:55;20.9;53.0
21121;DHT22;12519;43.318;21.898;2024-03-23T13:25:32;20.9;53.0
21121;DHT22;12519;43.318;21.898;2024-03-23T13:30:09;21.0;53.0
21121;DHT22;12519;43.318;21.898;2024-03-23T13:34:47;21.0;53.0
21121;DHT22;12519;43.318;21.898;2024-03-23T13:39:24;21.2;52.0
21121;DHT22;12519;43.318;21.898;2024-03-23T13:44:01;21.2;52.0
21121;DHT22;12519;43.318;21.898;2024-03-23T13:48:38;21.2;52.0
21121;DHT22;12519;43.318;21.898;2024-03-23T13:53:15;21.3;52.0
21121;DHT22;12519;43.318;21.898;2024-03-23T13:57:52;21.3;52.0
21121;DHT22;12519;43.318;21.898;2024-03-23T14:02:29;21.4;51.0
21121;DHT22;12519;43.318;21.898;2024-03-23T14:07:06;21.4;51.0
21121;DHT22;12519;43.318;21.898;2024-03-23T14:11:43;21.4;51.0
21121;DHT22;12519;43.318;21.898;2024-03-23T14:16:21;21.4;51.0
21121;DHT22;12519;43.318;21.898;2024-03-23T14:20:59;21.4;51.0
21121;DHT22;12519;43.318;21.898;2024-03-23T14:25:38;21.4;51.0
21121;DHT22;12519;43.318;21.898;2024-03-23T14:30:15;21.4;51.0
21121;DHT22;12519;43.318;21.898;2024-03-23T14:34:51;21.4;51.0
21121;DHT22;12519;43.318;21.898;2024-03-23T14:39:27;21.5;50.0
21121;DHT22;12519;43.318;21.898;2024-03-23T14:44:04;21.5;50.0
21121;DHT22;12519;43.318;21.898;2024-03-23T14:48:41;21.5;50.0
21121;DHT22;12519;43.318;21.898;2024-03-23T14:53:19;21.5;51.0
21121;DHT22;12519;43.318;21.898;2024-03-23T14:57:56;21.5;51.0
21121;DHT22;12519;43.318;21.898;2024-03-23T15:02:32;21.5;51.0
21121;DHT22;12519;43.318;21.898;2024-03-23T15:07:09;21.5;51.0
21121;DHT22;12519;43.318;21.898;2024-03-23T15:11:46;21.5;51.0
21121;DHT22;12519;43.318;21.898;2024-03-23T15:16:22;21.5;51.0
21121;DHT22;12519;43.318;21.898;2024-03-23T15:21:00;21.5;51.0
21121;DHT22;12519;43.318;21.898;2024-03-23T15:25:40;21.5;51.0
21121;DHT22;12519;43.318;21.898;2024-03-23T15:30:17;21.4;51.0
21121;DHT22;12519;43.318;21.898;2024-03-23T15:34:54;21.4;51.0
21121;DHT22;12519;43.318;21.898;2024-03-23T15:39:31;21.2;50.0
21121;DHT22;12519;43.318;21.898;2024-03-23T15:44:07;21.2;50.0
21121;DHT22;12519;43.318;21.898;2024-03-23T15:48:44;21.2;50.0
21121;DHT22;12519;43.318;21.898;2024-03-23T15:53:21;21.0;51.0
21121;DHT22;12519;43.318;21.898;2024-03-23T15:58:00;21.0;51.0
21121;DHT22;12519;43.318;21.898;2024-03-23T16:02:36;20.9;51.0
21121;DHT22;12519;43.318;21.898;2024-03-23T16:07:12;20.9;51.0
21121;DHT22;12519;43.318;21.898;2024-03-23T16:11:49;20.7;51.0
21121;DHT22;12519;43.318;21.898;2024-03-23T16:16:25;20.7;51.0
21121;DHT22;12519;43.318;21.898;2024-03-23T16:21:02;20.5;52.0
21121;DHT22;12519;43.318;21.898;2024-03-23T16:25:46;20.5;52.0
21121;DHT22;12519;43.318;21.898;2024-03-23T16:30:25;20.3;53.0
21121;DHT22;12519;43.318;21.898;2024-03-23T16:35:01;20.3;53.0
21121;DHT22;12519;43.318;21.898;2024-03-23T16:39:39;20.1;53.0
21121;DHT22;12519;43.318;21.898;2024-03-23T16:44:16;20.1;53.0
21121;DHT22;12519;43.318;21.898;2024-03-23T16:48:52;20.1;53.0
21121;DHT22;12519;43.318;21.898;2024-03-23T16:53:29;19.8;54.0
21121;DHT22;12519;43.318;21.898;2024-03-23T16:58:08;19.8;54.0
21121;DHT22;12519;43.318;21.898;2024-03-23T17:02:45;19.6;54.0
21121;DHT22;12519;43.318;21.898;2024-03-23T17:07:22;19.6;54.0
21121;DHT22;12519;43.318;21.898;2024-03-23T17:11:59;19.4;55.0
21121;DHT22;12519;43.318;21.898;2024-03-23T17:16:36;19.4;55.0
21121;DHT22;12519;43.318;21.898;2024-03-23T17:21:13;19.2;55.0
21121;DHT22;12519;43.318;21.898;2024-03-23T17:25:50;19.2;55.0
21121;DHT22;12519;43.318;21.898;2024-03-23T17:30:26;19.0;55.0
21121;DHT22;12519;43.318;21.898;2024-03-23T17:35:03;19.0;55.0
21121;DHT22;12519;43.318;21.898;2024-03-23T17:39:41;18.9;56.0
21121;DHT22;12519;43.318;21.898;2024-03-23T17:44:18;18.9;56.0
21121;DHT22;12519;43.318;21.898;2024-03-23T17:48:54;18.9;56.0
21121;DHT22;12519;43.318;21.898;2024-03-23T17:53:37;18.8;56.0
21121;DHT22;12519;43.318;21.898;2024-03-23T17:58:15;18.8;56.0
21121;DHT22;12519;43.318;21.898;2024-03-23T18:02:52;18.6;56.0
21121;DHT22;12519;43.318;21.898;2024-03-23T18:07:28;18.6;56.0
21121;DHT22;12519;43.318;21.898;2024-03-23T18:12:06;18.5;57.0
21121;DHT22;12519;43.318;21.898;2024-03-23T18:16:43;18.5;57.0
21121;DHT22;12519;43.318;21.898;2024-03-23T18:21:20;18.4;57.0
21121;DHT22;12519;43.318;21.898;2024-03-23T18:25:57;18.4;57.0
21121;DHT22;12519;43.318;21.898;2024-03-23T18:30:34;18.3;57.0
21121;DHT22;12519;43.318;21.898;2024-03-23T18:35:10;18.3;57.0
21121;DHT22;12519;43.318;21.898;2024-03-23T18:39:47;18.2;57.0
21121;DHT22;12519;43.318;21.898;2024-03-23T18:44:23;18.2;57.0
21121;DHT22;12519;43.318;21.898;2024-03-23T18:49:00;18.2;57.0
21121;DHT22;12519;43.318;21.898;2024-03-23T18:53:36;18.2;58.0
21121;DHT22;12519;43.318;21.898;2024-03-23T18:58:12;18.2;58.0
21121;DHT22;12519;43.318;21.898;2024-03-23T19:02:48;18.1;58.0
21121;DHT22;12519;43.318;21.898;2024-03-23T19:07:25;18.1;58.0
21121;DHT22;12519;43.318;21.898;2024-03-23T19:12:01;18.0;59.0
21121;DHT22;12519;43.318;21.898;2024-03-23T19:16:38;18.0;59.0
21121;DHT22;12519;43.318;21.898;2024-03-23T19:21:15;17.9;59.0
21121;DHT22;12519;43.318;21.898;2024-03-23T19:25:52;17.9;59.0
21121;DHT22;12519;43.318;21.898;2024-03-23T19:30:31;17.8;60.0
21121;DHT22;12519;43.318;21.898;2024-03-23T19:35:09;17.8;60.0
21121;DHT22;12519;43.318;21.898;2024-03-23T19:39:46;17.8;60.0
21121;DHT22;12519;43.318;21.898;2024-03-23T19:44:23;17.8;60.0
21121;DHT22;12519;43.318;21.898;2024-03-23T19:49:00;17.8;60.0
21121;DHT22;12519;43.318;21.898;2024-03-23T19:53:37;17.6;61.0
21121;DHT22;12519;43.318;21.898;2024-03-23T19:58:14;17.6;61.0
21121;DHT22;12519;43.318;21.898;2024-03-23T20:02:51;17.5;62.0
21121;DHT22;12519;43.318;21.898;2024-03-23T20:07:27;17.5;62.0
21121;DHT22;12519;43.318;21.898;2024-03-23T20:12:05;17.4;62.0
21121;DHT22;12519;43.318;21.898;2024-03-23T20:16:44;17.4;62.0
21121;DHT22;12519;43.318;21.898;2024-03-23T20:21:21;17.2;63.0
21121;DHT22;12519;43.318;21.898;2024-03-23T20:25:59;17.2;63.0
21121;DHT22;12519;43.318;21.898;2024-03-23T20:30:36;17.0;63.0
21121;DHT22;12519;43.318;21.898;2024-03-23T20:35:12;17.0;63.0
21121;DHT22;12519;43.318;21.898;2024-03-23T20:39:50;16.9;63.0
21121;DHT22;12519;43.318;21.898;2024-03-23T20:44:27;16.9;63.0
21121;DHT22;12519;43.318;21.898;2024-03-23T20:49:04;16.9;63.0
21121;DHT22;12519;43.318;21.898;2024-03-23T20:53:41;16.9;64.0
21121;DHT22;12519;43.318;21.898;2024-03-23T20:58:18;16.9;64.0
21121;DHT22;12519;43.318;21.898;2024-03-23T21:02:56;16.9;64.0
21121;DHT22;12519;43.318;21.898;2024-03-23T21:07:33;16.9;64.0
21121;DHT22;12519;43.318;21.898;2024-03-23T21:12:09;16.8;64.0
21121;DHT22;12519;43.318;21.898;2024-03-23T21:16:45;16.8;64.0
21121;DHT22;12519;43.318;21.898;2024-03-23T21:21:22;16.7;64.0
21121;DHT22;12519;43.318;21.898;2024-03-23T21:26:00;16.7;64.0
21121;DHT22;12519;43.318;21.898;2024-03-23T21:30:40;16.6;65.0
21121;DHT22;12519;43.318;21.898;2024-03-23T21:35:17;16.6;65.0
21121;DHT22;12519;43.318;21.898;2024-03-23T21:39:53;16.6;65.0
21121;DHT22;12519;43.318;21.898;2024-03-23T21:44:30;16.6;65.0
21121;DHT22;12519;43.318;21.898;2024-03-23T21:49:07;16.6;65.0
21121;DHT22;12519;43.318;21.898;2024-03-23T21:53:44;16.6;65.0
21121;DHT22;12519;43.318;21.898;2024-03-23T21:58:22;16.6;65.0
21121;DHT22;12519;43.318;21.898;2024-03-23T22:03:03;16.6;66.0
21121;DHT22;12519;43.318;21.898;2024-03-23T22:07:40;16.6;66.0
21121;DHT22;12519;43.318;21.898;2024-03-23T22:12:17;16.6;66.0
21121;DHT22;12519;43.318;21.898;2024-03-23T22:16:54;16.6;66.0
21121;DHT22;12519;43.318;21.898;2024-03-23T22:21:31;16.6;66.0
21121;DHT22;12519;43.318;21.898;2024-03-23T22:26:07;16.6;66.0
21121;DHT22;12519;43.318;21.898;2024-03-23T22:30:53;16.6;66.0
21121;DHT22;12519;43.318;21.898;2024-03-23T22:35:31;16.6;66.0
21121;DHT22;12519;43.318;21.898;2024-03-23T22:40:09;16.6;67.0
21121;DHT22;12519;43.318;21.898;2024-03-23T22:44:48;16.6;67.0
21121;DHT22;12519;43.318;21.898;2024-03-23T22:49:24;16.6;67.0
21121;DHT22;12519;43.318;21.898;2024-03-23T22:54:02;16.5;67.0
21121;DHT22;12519;43.318;21.898;2024-03-23T22:58:39;16.5;67.0
21121;DHT22;12519;43.318;21.898;2024-03-23T23:03:16;16.3;68.0
21121;DHT22;12519;43.318;21.898;2024-03-23T23:07:57;16.3;68.0
21121;DHT22;12519;43.318;21.898;2024-03-23T23:12:33;16.2;68.0
21121;DHT22;12519;43.318;21.898;2024-03-23T23:17:10;16.2;68.0
21121;DHT22;12519;43.318;21.898;2024-03-23T23:21:47;16.0;69.0
21121;DHT22;12519;43.318;21.898;2024-03-23T23:26:25;16.0;69.0
21121;DHT22;12519;43.318;21.898;2024-03-23T23:31:01;16.0;69.0
21121;DHT22;12519;43.318;21.898;2024-03-23T23:35:39;16.0;69.0
21121;DHT22;12519;43.318;21.898;2024-03-23T23:40:15;16.0;69.0
21121;DHT22;12519;43.318;21.898;2024-03-23T23:44:52;16.0;69.0
21121;DHT22;12519;43.318;21.898;2024-03-23T23:49:29;16.0;69.0
21121;DHT22;12519;43.318;21.898;2024-03-23T23:54:05;15.9;69.0
21121;DHT22;12519;43.318;21.898;2024-03-23T23:58:41;15.9;69.0
